Sinclair City, Texas
Current Conditions -  °F | °C
As of 2:15 PM on Wednesday 26 Nov 2014 (Local Time) from KJSO Reporting Station
Clear Clear  
Wind Chill: 66°   Ceiling: Unl
Heat Index: 66°   Visibility: 10mi
Dew Point: 28°   Wind: 9mph
Humidity: 24%   Direction: 270°W
Pressure: 30.16"   Gusts: NA
Location:  32.0774°N, 95.1103°W
Report Text: KJSO 262015Z AUTO 27008KT 10SM CLR 18/M02 A3016 RMK AO2 T01901021
Loading
Personal Weather Stations






























Interactive Weather Map New forecast layout! Learn more

10-Day Weather Forecast

Advertisements
Track Severe Weather on mobile